createdAt,value
2019-01-05T00:02:11.438Z,1.00
2019-01-05T00:05:00.198Z,1.10
2019-01-05T00:08:03.603Z,0.90
2019-01-05T00:10:55.310Z,1.00
2019-01-05T00:13:52.722Z,1.00
2019-01-05T00:16:47.324Z,1.10
2019-01-05T00:19:40.152Z,1.00
2019-01-05T00:22:31.871Z,1.00
2019-01-05T00:25:36.576Z,1.10
2019-01-05T00:28:31.303Z,0.90
2019-01-05T00:31:32.082Z,1.00
2019-01-05T00:34:27.865Z,1.00
2019-01-05T00:37:17.376Z,1.00
2019-01-05T00:40:23.006Z,0.90
2019-01-05T00:43:12.185Z,1.00
2019-01-05T00:46:17.356Z,0.90
2019-01-05T00:49:09.573Z,0.70
2019-01-05T00:52:02.292Z,0.90
2019-01-05T00:54:54.482Z,0.90
2019-01-05T00:57:58.661Z,1.00
2019-01-05T01:00:59.261Z,1.00
2019-01-05T01:03:54.029Z,1.00
2019-01-05T01:06:45.549Z,1.10
2019-01-05T01:09:34.263Z,1.00
2019-01-05T01:12:25.749Z,1.00
2019-01-05T01:15:23.445Z,1.00
2019-01-05T01:18:17.777Z,1.00
2019-01-05T01:21:09.289Z,1.00
2019-01-05T01:24:11.786Z,1.00
2019-01-05T01:27:06.527Z,1.00
2019-01-05T01:30:12.029Z,1.10
2019-01-05T01:33:10.445Z,0.70
2019-01-05T01:36:07.681Z,0.80
2019-01-05T01:39:14.482Z,1.00
2019-01-05T01:42:21.388Z,1.10
2019-01-05T01:45:21.842Z,1.00
2019-01-05T01:48:17.649Z,1.00
2019-01-05T01:51:21.074Z,0.90
2019-01-05T01:54:26.356Z,0.90
2019-01-05T01:57:22.300Z,0.90
2019-01-05T02:00:15.638Z,1.00
2019-01-05T02:03:11.944Z,1.00
2019-01-05T02:06:11.545Z,1.00
2019-01-05T02:09:19.895Z,1.00
2019-01-05T02:12:19.704Z,1.00
2019-01-05T02:15:17.359Z,1.10
2019-01-05T02:18:24.151Z,1.00
2019-01-05T02:21:30.537Z,0.90
2019-01-05T02:24:37.456Z,0.80
2019-01-05T02:27:55.785Z,0.90
2019-01-05T02:31:08.013Z,0.90
2019-01-05T02:34:20.434Z,1.00
2019-01-05T02:37:26.738Z,1.10
2019-01-05T02:40:32.742Z,1.00
2019-01-05T02:43:46.651Z,1.10
2019-01-05T02:47:03.873Z,1.00
2019-01-05T02:50:31.372Z,0.90
2019-01-05T02:53:56.043Z,0.90
2019-01-05T02:57:23.446Z,1.00
2019-01-05T03:00:46.177Z,1.00
2019-01-05T03:04:01.586Z,1.00
2019-01-05T03:06:58.776Z,1.00
2019-01-05T03:09:59.502Z,0.90
2019-01-05T03:13:11.862Z,0.90
2019-01-05T03:16:35.228Z,1.10
2019-01-05T03:19:43.308Z,1.10
2019-01-05T03:23:09.086Z,1.00
2019-01-05T03:26:27.809Z,1.00
2019-01-05T03:29:34.058Z,1.00
2019-01-05T03:32:47.688Z,0.80
2019-01-05T03:36:18.045Z,0.90
2019-01-05T03:39:33.737Z,0.90
2019-01-05T03:42:52.586Z,0.80
2019-01-05T03:46:08.470Z,0.90
2019-01-05T03:49:17.637Z,0.80
2019-01-05T03:52:44.248Z,0.90
2019-01-05T03:56:09.117Z,0.80
2019-01-05T03:59:16.838Z,0.80
2019-01-05T04:02:17.794Z,0.80
2019-01-05T04:05:34.886Z,0.70
2019-01-05T04:08:43.202Z,0.70
2019-01-05T04:11:46.457Z,0.70
2019-01-05T04:14:46.297Z,0.70
2019-01-05T04:18:09.270Z,0.80
2019-01-05T04:21:26.316Z,0.70
2019-01-05T04:24:29.688Z,0.60
2019-01-05T04:27:36.554Z,0.80
2019-01-05T04:31:08.668Z,0.70
2019-01-05T04:34:25.375Z,0.70
2019-01-05T04:37:29.129Z,0.80
2019-01-05T04:40:41.378Z,0.70
2019-01-05T04:43:41.556Z,0.70
2019-01-05T04:47:07.589Z,0.80
2019-01-05T04:50:15.304Z,0.90
2019-01-05T04:53:19.127Z,0.70
2019-01-05T04:56:56.824Z,0.80
2019-01-05T05:00:15.263Z,0.70
2019-01-05T05:03:28.830Z,0.60
2019-01-05T05:06:55.234Z,0.60
2019-01-05T05:10:28.790Z,0.60
2019-01-05T05:13:44.165Z,0.70
2019-01-05T05:17:20.556Z,0.70
2019-01-05T05:20:31.493Z,0.80
2019-01-05T05:23:53.406Z,0.80
2019-01-05T05:27:18.049Z,0.80
2019-01-05T05:30:42.360Z,0.70
2019-01-05T05:33:45.830Z,0.60
2019-01-05T05:37:15.168Z,0.60
2019-01-05T05:40:55.778Z,0.70
2019-01-05T05:43:47.475Z,0.60
2019-01-05T05:47:05.405Z,0.60
2019-01-05T05:50:21.949Z,0.60
2019-01-05T05:53:49.205Z,0.60
2019-01-05T05:57:29.877Z,0.60
2019-01-05T06:00:24.468Z,0.70
2019-01-05T06:03:27.776Z,0.80
2019-01-05T06:06:30.582Z,1.00
2019-01-05T06:10:00.960Z,0.90
2019-01-05T06:13:37.176Z,0.90
2019-01-05T06:16:48.433Z,0.80
2019-01-05T06:20:13.085Z,0.70
2019-01-05T06:23:13.677Z,0.70
2019-01-05T06:26:20.102Z,0.80
2019-01-05T06:29:28.296Z,0.90
2019-01-05T06:33:02.157Z,0.90
2019-01-05T06:36:22.112Z,0.70
2019-01-05T06:39:34.846Z,0.70
2019-01-05T06:43:01.109Z,0.90
2019-01-05T06:46:33.277Z,0.80
2019-01-05T06:49:55.665Z,0.90
2019-01-05T06:53:09.746Z,0.80
2019-01-05T06:56:17.665Z,0.80
2019-01-05T06:59:32.857Z,0.80
2019-01-05T07:02:33.814Z,0.80
2019-01-05T07:05:51.124Z,0.70
2019-01-05T07:09:20.867Z,0.70
2019-01-05T07:12:27.448Z,0.70
2019-01-05T07:15:51.957Z,0.50
2019-01-05T07:19:18.271Z,0.60
2019-01-05T07:22:40.061Z,0.60
2019-01-05T07:26:09.270Z,0.60
2019-01-05T07:29:51.794Z,0.60
2019-01-05T07:33:22.199Z,0.50
2019-01-05T07:36:39.830Z,0.60
2019-01-05T07:39:43.473Z,0.40
2019-01-05T07:43:03.200Z,0.50
2019-01-05T07:46:27.793Z,0.60
2019-01-05T07:49:52.419Z,0.50
2019-01-05T07:52:58.787Z,0.40
2019-01-05T07:56:11.522Z,0.60
2019-01-05T07:59:26.833Z,0.70
2019-01-05T08:02:37.933Z,0.90
2019-01-05T08:05:56.303Z,0.90
2019-01-05T08:09:08.061Z,0.80
2019-01-05T08:12:22.704Z,0.90
2019-01-05T08:15:45.483Z,1.00
2019-01-05T08:19:02.543Z,0.90
2019-01-05T08:21:54.451Z,0.90
2019-01-05T08:25:18.861Z,1.00
2019-01-05T08:28:36.015Z,0.90
2019-01-05T08:31:42.442Z,0.90
2019-01-05T08:34:54.741Z,1.00
2019-01-05T08:38:28.177Z,1.10
2019-01-05T08:41:52.459Z,1.00
2019-01-05T08:45:12.800Z,1.00
2019-01-05T08:48:31.183Z,1.00
2019-01-05T08:51:34.779Z,1.30
2019-01-05T08:54:57.833Z,1.20
2019-01-05T08:58:38.885Z,1.10
2019-01-05T09:02:15.308Z,1.10
2019-01-05T09:05:45.621Z,1.00
2019-01-05T09:08:55.215Z,1.00
2019-01-05T09:12:36.241Z,0.90
2019-01-05T09:16:11.219Z,1.00
2019-01-05T09:19:22.273Z,1.00
2019-01-05T09:22:51.763Z,0.90
2019-01-05T09:25:52.294Z,1.10
2019-01-05T09:29:17.856Z,1.10
2019-01-05T09:32:36.792Z,1.10
2019-01-05T09:35:31.046Z,1.10
2019-01-05T09:38:28.317Z,1.00
2019-01-05T09:41:40.570Z,1.10
2019-01-05T09:45:17.194Z,1.20
2019-01-05T09:48:51.660Z,1.10
2019-01-05T09:51:55.087Z,1.10
2019-01-05T09:55:07.660Z,1.10
2019-01-05T09:58:04.851Z,1.20
2019-01-05T10:01:23.563Z,1.20
2019-01-05T10:04:31.091Z,1.20
2019-01-05T10:08:00.065Z,1.20
2019-01-05T10:11:27.651Z,1.00
2019-01-05T10:14:54.855Z,1.10
2019-01-05T10:18:01.923Z,1.10
2019-01-05T10:21:18.933Z,1.10
2019-01-05T10:24:16.615Z,1.00
2019-01-05T10:27:51.423Z,1.00
2019-01-05T10:31:10.263Z,1.00
2019-01-05T10:34:35.997Z,1.00
2019-01-05T10:38:18.764Z,0.90
2019-01-05T10:41:55.269Z,1.00
2019-01-05T10:44:49.955Z,0.80
2019-01-05T10:48:03.604Z,0.80
2019-01-05T10:51:10.264Z,0.90
2019-01-05T10:54:20.480Z,0.90
2019-01-05T10:57:52.182Z,0.90
2019-01-05T11:01:07.229Z,1.00
2019-01-05T11:04:07.163Z,1.00
2019-01-05T11:07:19.208Z,1.20
2019-01-05T11:10:33.438Z,1.20
2019-01-05T11:13:56.359Z,1.20
2019-01-05T11:16:51.013Z,1.10
2019-01-05T11:20:06.557Z,1.00
2019-01-05T11:23:04.216Z,1.20
2019-01-05T11:26:01.640Z,1.30
2019-01-05T11:29:23.728Z,1.10
2019-01-05T11:32:30.167Z,1.10
2019-01-05T11:36:00.998Z,1.10
2019-01-05T11:39:07.668Z,1.20
2019-01-05T11:42:26.383Z,1.20
2019-01-05T11:45:42.563Z,1.20
2019-01-05T11:49:02.582Z,1.30
2019-01-05T11:52:30.026Z,1.30
2019-01-05T11:55:45.507Z,1.20
2019-01-05T11:59:11.511Z,1.20
2019-01-05T12:02:41.965Z,1.40
2019-01-05T12:06:01.543Z,1.20
2019-01-05T12:09:11.194Z,1.30
2019-01-05T12:12:23.496Z,1.30
2019-01-05T12:15:46.771Z,1.30
2019-01-05T12:18:47.345Z,1.40
2019-01-05T12:21:56.182Z,1.50
2019-01-05T12:25:20.181Z,1.60
2019-01-05T12:28:43.532Z,1.50
2019-01-05T12:32:06.289Z,1.50
2019-01-05T12:35:03.992Z,1.50
2019-01-05T12:38:16.950Z,1.50
2019-01-05T12:41:39.626Z,1.40
2019-01-05T12:44:54.231Z,1.50
2019-01-05T12:48:14.184Z,1.70
2019-01-05T12:51:35.777Z,1.70
2019-01-05T12:55:03.641Z,1.60
2019-01-05T12:57:55.476Z,1.60
2019-01-05T13:01:02.141Z,1.70
2019-01-05T13:04:26.478Z,1.80
2019-01-05T13:07:20.798Z,1.70
2019-01-05T13:10:44.105Z,1.90
2019-01-05T13:13:50.501Z,1.80
2019-01-05T13:17:16.525Z,1.70
2019-01-05T13:20:39.321Z,2.00
2019-01-05T13:24:01.921Z,2.00
2019-01-05T13:27:05.471Z,2.00
2019-01-05T13:30:29.406Z,1.90
2019-01-05T13:33:56.925Z,1.90
2019-01-05T13:37:22.420Z,1.90
2019-01-05T13:40:38.414Z,1.80
2019-01-05T13:43:54.151Z,1.90
2019-01-05T13:47:32.541Z,1.90
2019-01-05T13:50:57.284Z,1.80
2019-01-05T13:53:51.204Z,1.90
2019-01-05T13:56:49.167Z,2.00
2019-01-05T13:59:37.838Z,1.90
2019-01-05T14:02:37.944Z,1.90
2019-01-05T14:05:38.803Z,1.90
2019-01-05T14:08:27.457Z,1.90
2019-01-05T14:11:16.274Z,2.00
2019-01-05T14:14:20.008Z,2.10
2019-01-05T14:17:11.471Z,2.10
2019-01-05T14:20:03.502Z,2.00
2019-01-05T14:22:52.140Z,1.90
2019-01-05T14:25:57.003Z,2.00
2019-01-05T14:29:01.231Z,2.00
2019-01-05T14:32:04.905Z,1.80
2019-01-05T14:35:09.562Z,1.90
2019-01-05T14:38:14.446Z,2.00
2019-01-05T14:41:05.890Z,1.80
2019-01-05T14:43:57.674Z,1.80
2019-01-05T14:46:58.155Z,1.80
2019-01-05T14:50:02.761Z,1.80
2019-01-05T14:52:51.733Z,1.90
2019-01-05T14:55:49.022Z,1.70
2019-01-05T14:58:52.447Z,1.70
2019-01-05T15:01:57.340Z,1.70
2019-01-05T15:04:45.918Z,1.80
2019-01-05T15:07:46.693Z,1.80
2019-01-05T15:10:38.146Z,1.90
2019-01-05T15:13:42.823Z,1.80
2019-01-05T15:16:37.755Z,1.80
2019-01-05T15:19:32.343Z,1.60
2019-01-05T15:22:21.305Z,1.80
2019-01-05T15:25:10.054Z,1.80
2019-01-05T15:27:59.111Z,1.80
2019-01-05T15:31:05.610Z,1.90
2019-01-05T15:34:10.350Z,1.80
2019-01-05T15:36:59.191Z,1.70
2019-01-05T15:39:53.616Z,1.80
2019-01-05T15:42:42.122Z,1.80
2019-01-05T15:45:42.590Z,1.90
2019-01-05T15:48:47.414Z,1.90
2019-01-05T15:51:36.091Z,1.90
2019-01-05T15:54:24.685Z,1.90
2019-01-05T15:57:28.920Z,1.90
2019-01-05T16:00:17.792Z,2.00
2019-01-05T16:03:22.530Z,1.90
2019-01-05T16:06:26.711Z,1.90
2019-01-05T16:09:24.952Z,1.80
2019-01-05T16:12:29.587Z,1.80
2019-01-05T16:15:21.516Z,1.90
2019-01-05T16:18:10.289Z,1.80
2019-01-05T16:21:07.454Z,2.00
2019-01-05T16:24:12.032Z,1.90
2019-01-05T16:27:05.315Z,1.90
2019-01-05T16:30:02.811Z,1.80
2019-01-05T16:33:08.062Z,2.00
2019-01-05T16:35:59.375Z,1.90
2019-01-05T16:38:47.976Z,2.00
2019-01-05T16:41:37.041Z,1.90
2019-01-05T16:44:39.878Z,1.80
2019-01-05T16:47:37.615Z,1.90
2019-01-05T16:50:39.260Z,1.90
2019-01-05T16:53:27.883Z,1.90
2019-01-05T16:56:16.742Z,1.90
2019-01-05T16:59:11.673Z,1.90
2019-01-05T17:02:05.713Z,1.90
2019-01-05T17:04:57.548Z,1.90
2019-01-05T17:07:58.106Z,2.00
2019-01-05T17:10:46.926Z,1.90
2019-01-05T17:13:35.674Z,2.00
2019-01-05T17:16:40.278Z,1.90
2019-01-05T17:19:44.593Z,1.80
2019-01-05T17:22:45.634Z,1.90
2019-01-05T17:25:45.994Z,1.90
2019-01-05T17:28:43.967Z,2.00
2019-01-05T17:31:49.192Z,1.90
2019-01-05T17:34:54.074Z,1.90
2019-01-05T17:37:42.636Z,1.80
2019-01-05T17:40:37.061Z,1.80
2019-01-05T17:43:31.997Z,1.70
2019-01-05T17:46:29.505Z,1.60
2019-01-05T17:49:34.506Z,1.70
2019-01-05T17:52:32.294Z,1.70
2019-01-05T17:55:20.817Z,1.70
2019-01-05T17:58:15.024Z,1.80
2019-01-05T18:01:19.946Z,1.80
2019-01-05T18:04:25.212Z,1.90
2019-01-05T18:07:22.863Z,2.00
2019-01-05T18:10:14.806Z,2.00
2019-01-05T18:13:18.644Z,2.00
2019-01-05T18:16:07.373Z,2.00
2019-01-05T18:18:59.060Z,1.90
2019-01-05T18:21:53.511Z,2.00
2019-01-05T18:24:57.879Z,2.00
2019-01-05T18:28:02.795Z,1.90
2019-01-05T18:30:54.369Z,2.00
2019-01-05T18:33:42.893Z,2.10
2019-01-05T18:36:31.787Z,2.00
2019-01-05T18:39:20.865Z,2.00
2019-01-05T18:42:17.989Z,2.00
2019-01-05T18:45:25.129Z,2.00
2019-01-05T18:48:14.163Z,2.10
2019-01-05T18:51:19.017Z,1.90
2019-01-05T18:54:24.290Z,2.00
2019-01-05T18:57:29.722Z,2.00
2019-01-05T19:00:24.610Z,2.00
2019-01-05T19:03:15.855Z,2.10
2019-01-05T19:06:20.777Z,2.10
2019-01-05T19:09:25.456Z,2.00
2019-01-05T19:12:23.540Z,2.10
2019-01-05T19:15:14.956Z,2.10
2019-01-05T19:18:06.919Z,2.00
2019-01-05T19:21:11.480Z,2.00
2019-01-05T19:24:09.430Z,2.10
2019-01-05T19:27:12.916Z,2.00
2019-01-05T19:30:07.521Z,2.00
2019-01-05T19:33:01.908Z,2.10
2019-01-05T19:35:53.459Z,2.10
2019-01-05T19:38:58.383Z,2.20
2019-01-05T19:41:53.408Z,2.10
2019-01-05T19:44:48.032Z,2.00
2019-01-05T19:47:36.662Z,2.30
2019-01-05T19:50:25.390Z,2.20
2019-01-05T19:53:13.892Z,2.10
2019-01-05T19:56:07.905Z,2.10
2019-01-05T19:59:12.485Z,2.00
2019-01-05T20:02:13.329Z,2.00
2019-01-05T20:05:02.053Z,2.10
2019-01-05T20:08:03.100Z,2.00
2019-01-05T20:10:57.683Z,2.10
2019-01-05T20:13:46.326Z,2.10
2019-01-05T20:16:34.939Z,2.10
2019-01-05T20:19:23.445Z,2.10
2019-01-05T20:22:17.798Z,2.00
2019-01-05T20:25:25.301Z,2.10
2019-01-05T20:28:29.884Z,2.10
2019-01-05T20:31:18.879Z,2.00
2019-01-05T20:34:25.653Z,2.10
2019-01-05T20:37:26.114Z,2.10
2019-01-05T20:40:20.637Z,2.10
2019-01-05T20:43:25.529Z,2.20
2019-01-05T20:46:30.793Z,2.10
2019-01-05T20:49:31.348Z,2.20
2019-01-05T20:52:31.735Z,2.30
2019-01-05T20:55:20.507Z,2.20
2019-01-05T20:58:20.446Z,2.20
2019-01-05T21:01:11.871Z,2.20
2019-01-05T21:04:03.486Z,2.10
2019-01-05T21:06:54.828Z,2.10
2019-01-05T21:09:43.434Z,2.20
2019-01-05T21:12:32.428Z,2.10
2019-01-05T21:15:26.911Z,2.20
2019-01-05T21:18:32.003Z,2.20
2019-01-05T21:21:26.732Z,2.30
2019-01-05T21:24:15.323Z,2.20
2019-01-05T21:27:13.102Z,2.20
2019-01-05T21:30:04.597Z,2.20
2019-01-05T21:32:56.152Z,2.10
2019-01-05T21:35:47.760Z,2.20
2019-01-05T21:38:36.726Z,2.30
2019-01-05T21:41:25.515Z,2.30
2019-01-05T21:44:17.211Z,2.30
2019-01-05T21:47:20.853Z,2.30
2019-01-05T21:50:18.758Z,2.30
2019-01-05T21:53:23.760Z,2.30
2019-01-05T21:56:12.837Z,2.20
2019-01-05T21:59:01.619Z,2.30
2019-01-05T22:01:53.106Z,2.30
2019-01-05T22:04:48.163Z,2.30
2019-01-05T22:07:39.777Z,2.30
2019-01-05T22:10:31.314Z,2.30
2019-01-05T22:13:36.045Z,2.30
2019-01-05T22:16:27.735Z,2.30
2019-01-05T22:19:18.994Z,2.20
2019-01-05T22:22:19.481Z,2.30
2019-01-05T22:25:23.163Z,2.30
2019-01-05T22:28:17.167Z,2.20
2019-01-05T22:31:08.366Z,2.20
2019-01-05T22:34:03.351Z,2.30
2019-01-05T22:36:58.458Z,2.30
2019-01-05T22:39:53.239Z,2.30
2019-01-05T22:42:41.998Z,2.30
2019-01-05T22:45:33.477Z,2.30
2019-01-05T22:48:25.160Z,2.30
2019-01-05T22:51:25.751Z,2.20
2019-01-05T22:54:19.963Z,2.10
2019-01-05T22:57:08.739Z,2.20
2019-01-05T23:00:03.615Z,2.10
2019-01-05T23:02:52.181Z,2.20
2019-01-05T23:05:40.994Z,2.20
2019-01-05T23:08:29.304Z,2.20
2019-01-05T23:11:20.468Z,2.20
2019-01-05T23:14:20.958Z,2.20
2019-01-05T23:17:27.830Z,2.20
2019-01-05T23:20:33.032Z,2.20
2019-01-05T23:23:33.699Z,2.20
2019-01-05T23:26:28.145Z,2.10
2019-01-05T23:29:32.945Z,2.20
2019-01-05T23:32:27.031Z,2.10
2019-01-05T23:35:21.334Z,2.10
2019-01-05T23:38:09.951Z,2.00
2019-01-05T23:41:14.614Z,2.10
2019-01-05T23:44:06.079Z,2.10
2019-01-05T23:46:57.623Z,2.10
2019-01-05T23:49:46.312Z,2.00
2019-01-05T23:52:46.788Z,2.00
2019-01-05T23:55:51.723Z,2.00
2019-01-05T23:58:58.332Z,2.20
